sensor_id;sensor_type;location;lat;lon;timestamp;P1;durP1;ratioP1;P2;durP2;ratioP2
40314;SDS011;26021;45.640;11.302;2023-03-01T00:01:38;18.23;;;12.40;;
40314;SDS011;26021;45.640;11.302;2023-03-01T00:04:04;20.45;;;12.68;;
40314;SDS011;26021;45.640;11.302;2023-03-01T00:06:29;16.63;;;11.18;;
40314;SDS011;26021;45.640;11.302;2023-03-01T00:08:55;18.60;;;12.00;;
40314;SDS011;26021;45.640;11.302;2023-03-01T00:11:21;22.73;;;14.18;;
40314;SDS011;26021;45.640;11.302;2023-03-01T00:13:47;22.10;;;13.20;;
40314;SDS011;26021;45.640;11.302;2023-03-01T00:16:18;19.13;;;12.65;;
40314;SDS011;26021;45.640;11.302;2023-03-01T00:21:14;20.58;;;12.60;;
40314;SDS011;26021;45.640;11.302;2023-03-01T00:23:39;19.83;;;12.68;;
40314;SDS011;26021;45.640;11.302;2023-03-01T00:26:06;21.38;;;12.57;;
40314;SDS011;26021;45.640;11.302;2023-03-01T00:28:33;23.52;;;15.48;;
40314;SDS011;26021;45.640;11.302;2023-03-01T00:31:06;23.70;;;15.23;;
40314;SDS011;26021;45.640;11.302;2023-03-01T00:33:34;19.08;;;12.07;;
40314;SDS011;26021;45.640;11.302;2023-03-01T00:36:00;23.77;;;13.40;;
40314;SDS011;26021;45.640;11.302;2023-03-01T00:38:26;21.35;;;12.02;;
40314;SDS011;26021;45.640;11.302;2023-03-01T00:40:52;21.38;;;12.32;;
40314;SDS011;26021;45.640;11.302;2023-03-01T00:43:17;21.30;;;12.50;;
40314;SDS011;26021;45.640;11.302;2023-03-01T00:45:43;19.00;;;11.93;;
40314;SDS011;26021;45.640;11.302;2023-03-01T00:48:09;17.67;;;11.38;;
40314;SDS011;26021;45.640;11.302;2023-03-01T00:50:34;19.35;;;12.75;;
40314;SDS011;26021;45.640;11.302;2023-03-01T00:52:59;20.23;;;11.48;;
40314;SDS011;26021;45.640;11.302;2023-03-01T00:55:25;17.20;;;11.50;;
40314;SDS011;26021;45.640;11.302;2023-03-01T00:57:51;17.73;;;11.60;;
40314;SDS011;26021;45.640;11.302;2023-03-01T01:00:17;23.58;;;11.63;;
40314;SDS011;26021;45.640;11.302;2023-03-01T01:02:43;19.70;;;12.13;;
40314;SDS011;26021;45.640;11.302;2023-03-01T01:05:09;18.40;;;11.32;;
40314;SDS011;26021;45.640;11.302;2023-03-01T01:07:35;17.67;;;11.23;;
40314;SDS011;26021;45.640;11.302;2023-03-01T01:10:00;18.80;;;11.63;;
40314;SDS011;26021;45.640;11.302;2023-03-01T01:12:26;20.30;;;11.30;;
40314;SDS011;26021;45.640;11.302;2023-03-01T01:14:51;21.58;;;11.27;;
40314;SDS011;26021;45.640;11.302;2023-03-01T01:17:16;20.00;;;12.13;;
40314;SDS011;26021;45.640;11.302;2023-03-01T01:19:42;16.98;;;11.25;;
40314;SDS011;26021;45.640;11.302;2023-03-01T01:22:07;16.27;;;11.35;;
40314;SDS011;26021;45.640;11.302;2023-03-01T01:24:33;17.55;;;11.10;;
40314;SDS011;26021;45.640;11.302;2023-03-01T01:26:58;16.83;;;11.25;;
40314;SDS011;26021;45.640;11.302;2023-03-01T01:29:23;16.65;;;10.80;;
40314;SDS011;26021;45.640;11.302;2023-03-01T01:31:49;19.85;;;11.13;;
40314;SDS011;26021;45.640;11.302;2023-03-01T01:34:15;20.77;;;12.15;;
40314;SDS011;26021;45.640;11.302;2023-03-01T01:36:42;15.65;;;11.07;;
40314;SDS011;26021;45.640;11.302;2023-03-01T01:39:08;17.13;;;11.38;;
40314;SDS011;26021;45.640;11.302;2023-03-01T01:41:38;17.15;;;11.27;;
40314;SDS011;26021;45.640;11.302;2023-03-01T01:46:48;18.75;;;12.27;;
40314;SDS011;26021;45.640;11.302;2023-03-01T01:51:54;18.17;;;12.23;;
40314;SDS011;26021;45.640;11.302;2023-03-01T01:54:27;18.50;;;11.45;;
40314;SDS011;26021;45.640;11.302;2023-03-01T01:57:00;17.35;;;11.70;;
40314;SDS011;26021;45.640;11.302;2023-03-01T01:59:30;19.95;;;11.63;;
40314;SDS011;26021;45.640;11.302;2023-03-01T02:01:58;19.42;;;11.90;;
40314;SDS011;26021;45.640;11.302;2023-03-01T02:04:26;18.30;;;11.57;;
40314;SDS011;26021;45.640;11.302;2023-03-01T02:06:55;24.98;;;14.13;;
40314;SDS011;26021;45.640;11.302;2023-03-01T02:09:24;20.15;;;12.77;;
40314;SDS011;26021;45.640;11.302;2023-03-01T02:11:51;21.00;;;13.00;;
40314;SDS011;26021;45.640;11.302;2023-03-01T02:14:18;23.48;;;12.88;;
40314;SDS011;26021;45.640;11.302;2023-03-01T02:16:44;23.17;;;12.25;;
40314;SDS011;26021;45.640;11.302;2023-03-01T02:19:12;18.77;;;12.25;;
40314;SDS011;26021;45.640;11.302;2023-03-01T02:21:50;18.48;;;11.55;;
40314;SDS011;26021;45.640;11.302;2023-03-01T02:27:01;20.30;;;12.40;;
40314;SDS011;26021;45.640;11.302;2023-03-01T02:29:26;21.33;;;12.95;;
40314;SDS011;26021;45.640;11.302;2023-03-01T02:31:53;23.27;;;13.27;;
40314;SDS011;26021;45.640;11.302;2023-03-01T02:34:22;19.30;;;12.25;;
40314;SDS011;26021;45.640;11.302;2023-03-01T02:39:48;23.77;;;13.00;;
40314;SDS011;26021;45.640;11.302;2023-03-01T02:42:23;21.35;;;12.45;;
40314;SDS011;26021;45.640;11.302;2023-03-01T02:44:53;18.70;;;12.15;;
40314;SDS011;26021;45.640;11.302;2023-03-01T02:47:19;20.55;;;12.30;;
40314;SDS011;26021;45.640;11.302;2023-03-01T02:49:44;24.23;;;13.38;;
40314;SDS011;26021;45.640;11.302;2023-03-01T02:57:27;19.63;;;12.80;;
40314;SDS011;26021;45.640;11.302;2023-03-01T02:59:55;19.17;;;12.82;;
40314;SDS011;26021;45.640;11.302;2023-03-01T03:02:23;22.10;;;12.45;;
40314;SDS011;26021;45.640;11.302;2023-03-01T03:05:03;20.60;;;13.27;;
40314;SDS011;26021;45.640;11.302;2023-03-01T03:07:35;20.83;;;13.35;;
40314;SDS011;26021;45.640;11.302;2023-03-01T03:10:02;22.60;;;13.45;;
40314;SDS011;26021;45.640;11.302;2023-03-01T03:12:29;22.70;;;12.88;;
40314;SDS011;26021;45.640;11.302;2023-03-01T03:14:54;20.80;;;13.48;;
40314;SDS011;26021;45.640;11.302;2023-03-01T03:17:19;22.52;;;13.23;;
40314;SDS011;26021;45.640;11.302;2023-03-01T03:19:45;20.77;;;12.57;;
40314;SDS011;26021;45.640;11.302;2023-03-01T03:22:11;20.77;;;13.35;;
40314;SDS011;26021;45.640;11.302;2023-03-01T03:24:37;18.58;;;13.15;;
40314;SDS011;26021;45.640;11.302;2023-03-01T03:27:03;21.60;;;13.73;;
40314;SDS011;26021;45.640;11.302;2023-03-01T03:29:30;23.52;;;13.45;;
40314;SDS011;26021;45.640;11.302;2023-03-01T03:31:55;22.13;;;12.70;;
40314;SDS011;26021;45.640;11.302;2023-03-01T03:34:21;19.58;;;12.43;;
40314;SDS011;26021;45.640;11.302;2023-03-01T03:36:46;19.08;;;12.45;;
40314;SDS011;26021;45.640;11.302;2023-03-01T03:39:11;18.60;;;13.20;;
40314;SDS011;26021;45.640;11.302;2023-03-01T03:41:37;18.55;;;12.70;;
40314;SDS011;26021;45.640;11.302;2023-03-01T03:44:02;18.95;;;11.85;;
40314;SDS011;26021;45.640;11.302;2023-03-01T03:46:28;22.40;;;12.80;;
40314;SDS011;26021;45.640;11.302;2023-03-01T03:48:53;20.45;;;12.95;;
40314;SDS011;26021;45.640;11.302;2023-03-01T03:51:18;20.35;;;12.82;;
40314;SDS011;26021;45.640;11.302;2023-03-01T03:53:44;21.85;;;13.40;;
40314;SDS011;26021;45.640;11.302;2023-03-01T03:56:10;21.90;;;12.77;;
40314;SDS011;26021;45.640;11.302;2023-03-01T03:58:36;20.85;;;13.20;;
40314;SDS011;26021;45.640;11.302;2023-03-01T04:01:03;17.08;;;11.63;;
40314;SDS011;26021;45.640;11.302;2023-03-01T04:03:29;19.23;;;12.90;;
40314;SDS011;26021;45.640;11.302;2023-03-01T04:05:57;23.00;;;13.27;;
40314;SDS011;26021;45.640;11.302;2023-03-01T04:08:24;20.05;;;12.95;;
40314;SDS011;26021;45.640;11.302;2023-03-01T04:10:51;21.98;;;13.38;;
40314;SDS011;26021;45.640;11.302;2023-03-01T04:13:19;20.27;;;12.88;;
40314;SDS011;26021;45.640;11.302;2023-03-01T04:15:46;19.90;;;13.02;;
40314;SDS011;26021;45.640;11.302;2023-03-01T04:18:14;21.00;;;13.13;;
40314;SDS011;26021;45.640;11.302;2023-03-01T04:20:41;17.48;;;12.15;;
40314;SDS011;26021;45.640;11.302;2023-03-01T04:23:08;20.73;;;12.95;;
40314;SDS011;26021;45.640;11.302;2023-03-01T04:28:24;23.52;;;14.55;;
40314;SDS011;26021;45.640;11.302;2023-03-01T04:30:55;23.35;;;14.43;;
40314;SDS011;26021;45.640;11.302;2023-03-01T04:33:22;20.52;;;13.68;;
40314;SDS011;26021;45.640;11.302;2023-03-01T04:35:49;22.27;;;13.30;;
40314;SDS011;26021;45.640;11.302;2023-03-01T04:38:15;23.63;;;14.30;;
40314;SDS011;26021;45.640;11.302;2023-03-01T04:40:41;23.38;;;14.32;;
40314;SDS011;26021;45.640;11.302;2023-03-01T04:43:08;23.45;;;13.27;;
40314;SDS011;26021;45.640;11.302;2023-03-01T04:45:34;21.73;;;14.02;;
40314;SDS011;26021;45.640;11.302;2023-03-01T04:47:59;21.23;;;14.02;;
40314;SDS011;26021;45.640;11.302;2023-03-01T04:50:25;23.73;;;13.63;;
40314;SDS011;26021;45.640;11.302;2023-03-01T04:52:50;18.60;;;12.77;;
40314;SDS011;26021;45.640;11.302;2023-03-01T04:55:16;25.33;;;13.93;;
40314;SDS011;26021;45.640;11.302;2023-03-01T04:57:42;23.50;;;14.23;;
40314;SDS011;26021;45.640;11.302;2023-03-01T05:00:08;22.88;;;14.50;;
40314;SDS011;26021;45.640;11.302;2023-03-01T05:02:48;18.55;;;13.30;;
40314;SDS011;26021;45.640;11.302;2023-03-01T05:05:28;22.67;;;14.25;;
40314;SDS011;26021;45.640;11.302;2023-03-01T05:07:55;19.80;;;13.50;;
40314;SDS011;26021;45.640;11.302;2023-03-01T05:10:22;20.02;;;14.48;;
40314;SDS011;26021;45.640;11.302;2023-03-01T05:12:48;22.73;;;13.32;;
40314;SDS011;26021;45.640;11.302;2023-03-01T05:15:14;21.52;;;12.48;;
40314;SDS011;26021;45.640;11.302;2023-03-01T05:17:39;19.70;;;12.98;;
40314;SDS011;26021;45.640;11.302;2023-03-01T05:20:05;21.42;;;13.18;;
40314;SDS011;26021;45.640;11.302;2023-03-01T05:22:34;22.05;;;13.05;;
40314;SDS011;26021;45.640;11.302;2023-03-01T05:25:00;21.48;;;13.75;;
40314;SDS011;26021;45.640;11.302;2023-03-01T05:27:26;19.33;;;13.10;;
40314;SDS011;26021;45.640;11.302;2023-03-01T05:29:51;22.65;;;13.57;;
40314;SDS011;26021;45.640;11.302;2023-03-01T05:32:17;22.50;;;13.68;;
40314;SDS011;26021;45.640;11.302;2023-03-01T05:34:42;19.13;;;12.45;;
40314;SDS011;26021;45.640;11.302;2023-03-01T05:37:09;24.35;;;13.10;;
40314;SDS011;26021;45.640;11.302;2023-03-01T05:39:34;25.73;;;13.88;;
40314;SDS011;26021;45.640;11.302;2023-03-01T05:42:00;28.55;;;17.40;;
40314;SDS011;26021;45.640;11.302;2023-03-01T05:44:26;27.52;;;15.43;;
40314;SDS011;26021;45.640;11.302;2023-03-01T05:46:53;39.05;;;22.73;;
40314;SDS011;26021;45.640;11.302;2023-03-01T05:49:19;32.33;;;18.40;;
40314;SDS011;26021;45.640;11.302;2023-03-01T05:51:49;30.60;;;15.65;;
40314;SDS011;26021;45.640;11.302;2023-03-01T05:54:16;21.48;;;12.32;;
40314;SDS011;26021;45.640;11.302;2023-03-01T05:56:43;21.65;;;12.70;;
40314;SDS011;26021;45.640;11.302;2023-03-01T05:59:08;19.05;;;13.15;;
40314;SDS011;26021;45.640;11.302;2023-03-01T06:01:34;22.02;;;13.25;;
40314;SDS011;26021;45.640;11.302;2023-03-01T06:04:00;24.48;;;13.77;;
40314;SDS011;26021;45.640;11.302;2023-03-01T06:06:27;26.17;;;17.42;;
40314;SDS011;26021;45.640;11.302;2023-03-01T06:08:52;30.27;;;18.42;;
40314;SDS011;26021;45.640;11.302;2023-03-01T06:11:18;23.88;;;14.82;;
40314;SDS011;26021;45.640;11.302;2023-03-01T06:13:45;27.08;;;17.48;;
40314;SDS011;26021;45.640;11.302;2023-03-01T06:16:11;23.08;;;14.88;;
40314;SDS011;26021;45.640;11.302;2023-03-01T06:18:37;20.77;;;13.48;;
40314;SDS011;26021;45.640;11.302;2023-03-01T06:21:03;19.70;;;13.70;;
40314;SDS011;26021;45.640;11.302;2023-03-01T06:23:29;21.08;;;14.88;;
40314;SDS011;26021;45.640;11.302;2023-03-01T06:25:55;26.77;;;17.15;;
40314;SDS011;26021;45.640;11.302;2023-03-01T06:28:20;29.90;;;18.95;;
40314;SDS011;26021;45.640;11.302;2023-03-01T06:30:45;27.13;;;16.90;;
40314;SDS011;26021;45.640;11.302;2023-03-01T06:33:11;34.00;;;22.77;;
40314;SDS011;26021;45.640;11.302;2023-03-01T06:35:36;24.95;;;14.45;;
40314;SDS011;26021;45.640;11.302;2023-03-01T06:38:02;21.35;;;14.20;;
40314;SDS011;26021;45.640;11.302;2023-03-01T06:40:29;24.83;;;14.30;;
40314;SDS011;26021;45.640;11.302;2023-03-01T06:42:56;24.95;;;14.88;;
40314;SDS011;26021;45.640;11.302;2023-03-01T06:45:22;23.83;;;14.85;;
40314;SDS011;26021;45.640;11.302;2023-03-01T06:47:48;20.48;;;13.63;;
40314;SDS011;26021;45.640;11.302;2023-03-01T06:50:14;22.88;;;13.43;;
40314;SDS011;26021;45.640;11.302;2023-03-01T06:52:41;19.92;;;13.90;;
40314;SDS011;26021;45.640;11.302;2023-03-01T06:55:06;21.40;;;13.00;;
40314;SDS011;26021;45.640;11.302;2023-03-01T06:57:32;25.08;;;15.27;;
40314;SDS011;26021;45.640;11.302;2023-03-01T06:59:58;23.48;;;15.25;;
40314;SDS011;26021;45.640;11.302;2023-03-01T07:02:23;23.65;;;14.23;;
40314;SDS011;26021;45.640;11.302;2023-03-01T07:04:49;24.80;;;15.02;;
40314;SDS011;26021;45.640;11.302;2023-03-01T07:07:15;21.98;;;14.65;;
40314;SDS011;26021;45.640;11.302;2023-03-01T07:09:42;22.23;;;14.43;;
40314;SDS011;26021;45.640;11.302;2023-03-01T07:12:08;24.45;;;15.23;;
40314;SDS011;26021;45.640;11.302;2023-03-01T07:14:33;23.70;;;14.32;;
40314;SDS011;26021;45.640;11.302;2023-03-01T07:16:59;23.98;;;15.73;;
40314;SDS011;26021;45.640;11.302;2023-03-01T07:19:24;21.13;;;15.00;;
40314;SDS011;26021;45.640;11.302;2023-03-01T07:21:50;23.15;;;15.38;;
40314;SDS011;26021;45.640;11.302;2023-03-01T07:24:15;22.52;;;15.40;;
40314;SDS011;26021;45.640;11.302;2023-03-01T07:26:40;29.65;;;16.52;;
40314;SDS011;26021;45.640;11.302;2023-03-01T07:29:06;27.00;;;17.00;;
40314;SDS011;26021;45.640;11.302;2023-03-01T07:31:34;29.25;;;15.45;;
40314;SDS011;26021;45.640;11.302;2023-03-01T07:33:59;31.23;;;17.85;;
40314;SDS011;26021;45.640;11.302;2023-03-01T07:36:25;23.95;;;15.82;;
40314;SDS011;26021;45.640;11.302;2023-03-01T07:38:50;23.08;;;14.77;;
40314;SDS011;26021;45.640;11.302;2023-03-01T07:41:16;31.55;;;16.85;;
40314;SDS011;26021;45.640;11.302;2023-03-01T07:43:42;27.05;;;16.38;;
40314;SDS011;26021;45.640;11.302;2023-03-01T07:46:09;25.42;;;15.60;;
40314;SDS011;26021;45.640;11.302;2023-03-01T07:48:34;27.92;;;17.90;;
40314;SDS011;26021;45.640;11.302;2023-03-01T07:51:00;24.08;;;16.10;;
40314;SDS011;26021;45.640;11.302;2023-03-01T07:53:27;26.45;;;16.25;;
40314;SDS011;26021;45.640;11.302;2023-03-01T07:58:30;27.67;;;17.33;;
40314;SDS011;26021;45.640;11.302;2023-03-01T08:00:56;26.02;;;16.85;;
40314;SDS011;26021;45.640;11.302;2023-03-01T08:03:26;24.23;;;16.88;;
40314;SDS011;26021;45.640;11.302;2023-03-01T08:05:51;25.30;;;16.40;;
40314;SDS011;26021;45.640;11.302;2023-03-01T08:08:17;24.58;;;15.38;;
40314;SDS011;26021;45.640;11.302;2023-03-01T08:10:42;26.25;;;15.32;;
40314;SDS011;26021;45.640;11.302;2023-03-01T08:13:07;21.55;;;15.18;;
40314;SDS011;26021;45.640;11.302;2023-03-01T08:15:33;21.10;;;12.50;;
40314;SDS011;26021;45.640;11.302;2023-03-01T08:17:58;19.15;;;13.00;;
40314;SDS011;26021;45.640;11.302;2023-03-01T08:20:24;21.02;;;12.50;;
40314;SDS011;26021;45.640;11.302;2023-03-01T08:22:49;20.10;;;13.07;;
40314;SDS011;26021;45.640;11.302;2023-03-01T08:25:14;18.92;;;13.15;;
40314;SDS011;26021;45.640;11.302;2023-03-01T08:27:40;21.45;;;13.48;;
40314;SDS011;26021;45.640;11.302;2023-03-01T08:30:05;17.77;;;12.63;;
40314;SDS011;26021;45.640;11.302;2023-03-01T08:32:35;21.45;;;12.43;;
40314;SDS011;26021;45.640;11.302;2023-03-01T08:35:01;15.15;;;11.45;;
40314;SDS011;26021;45.640;11.302;2023-03-01T08:37:26;15.90;;;12.05;;
40314;SDS011;26021;45.640;11.302;2023-03-01T08:39:52;14.23;;;10.82;;
40314;SDS011;26021;45.640;11.302;2023-03-01T08:42:19;16.08;;;12.20;;
40314;SDS011;26021;45.640;11.302;2023-03-01T08:44:45;18.55;;;11.88;;
40314;SDS011;26021;45.640;11.302;2023-03-01T08:47:10;18.83;;;12.55;;
40314;SDS011;26021;45.640;11.302;2023-03-01T08:49:35;18.63;;;13.48;;
40314;SDS011;26021;45.640;11.302;2023-03-01T08:52:01;21.88;;;14.25;;
40314;SDS011;26021;45.640;11.302;2023-03-01T08:54:27;14.48;;;10.70;;
40314;SDS011;26021;45.640;11.302;2023-03-01T08:56:52;17.38;;;12.25;;
40314;SDS011;26021;45.640;11.302;2023-03-01T08:59:18;16.27;;;10.82;;
40314;SDS011;26021;45.640;11.302;2023-03-01T09:01:44;12.88;;;10.23;;
40314;SDS011;26021;45.640;11.302;2023-03-01T09:04:10;12.77;;;10.15;;
40314;SDS011;26021;45.640;11.302;2023-03-01T09:06:36;15.40;;;11.48;;
40314;SDS011;26021;45.640;11.302;2023-03-01T09:09:02;16.77;;;10.00;;
40314;SDS011;26021;45.640;11.302;2023-03-01T09:11:28;11.95;;;8.95;;
40314;SDS011;26021;45.640;11.302;2023-03-01T09:13:54;13.52;;;9.95;;
40314;SDS011;26021;45.640;11.302;2023-03-01T09:16:20;12.95;;;8.65;;
40314;SDS011;26021;45.640;11.302;2023-03-01T09:18:51;15.27;;;9.25;;
40314;SDS011;26021;45.640;11.302;2023-03-01T09:21:18;15.80;;;8.57;;
40314;SDS011;26021;45.640;11.302;2023-03-01T09:23:46;10.40;;;7.55;;
40314;SDS011;26021;45.640;11.302;2023-03-01T09:26:13;11.15;;;7.88;;
40314;SDS011;26021;45.640;11.302;2023-03-01T09:31:13;9.85;;;6.85;;
40314;SDS011;26021;45.640;11.302;2023-03-01T09:33:40;13.07;;;7.85;;
40314;SDS011;26021;45.640;11.302;2023-03-01T09:36:07;11.13;;;7.55;;
40314;SDS011;26021;45.640;11.302;2023-03-01T09:38:37;10.73;;;7.75;;
40314;SDS011;26021;45.640;11.302;2023-03-01T09:41:08;11.25;;;6.90;;
40314;SDS011;26021;45.640;11.302;2023-03-01T09:46:19;36.70;;;24.98;;
40314;SDS011;26021;45.640;11.302;2023-03-01T09:48:57;12.63;;;9.32;;
40314;SDS011;26021;45.640;11.302;2023-03-01T09:51:30;14.52;;;9.30;;
40314;SDS011;26021;45.640;11.302;2023-03-01T09:53:57;15.07;;;8.27;;
40314;SDS011;26021;45.640;11.302;2023-03-01T10:01:56;10.10;;;6.55;;
40314;SDS011;26021;45.640;11.302;2023-03-01T10:04:45;10.85;;;6.80;;
40314;SDS011;26021;45.640;11.302;2023-03-01T10:07:19;12.07;;;7.57;;
40314;SDS011;26021;45.640;11.302;2023-03-01T10:09:55;11.32;;;7.65;;
40314;SDS011;26021;45.640;11.302;2023-03-01T10:12:22;9.70;;;6.68;;
40314;SDS011;26021;45.640;11.302;2023-03-01T10:20:15;9.80;;;7.35;;
40314;SDS011;26021;45.640;11.302;2023-03-01T10:22:44;8.13;;;6.65;;
40314;SDS011;26021;45.640;11.302;2023-03-01T10:28:48;11.05;;;7.95;;
40314;SDS011;26021;45.640;11.302;2023-03-01T10:31:39;10.70;;;7.40;;
40314;SDS011;26021;45.640;11.302;2023-03-01T10:34:13;12.90;;;8.85;;
40314;SDS011;26021;45.640;11.302;2023-03-01T10:36:41;8.60;;;7.20;;
40314;SDS011;26021;45.640;11.302;2023-03-01T10:39:22;11.07;;;6.28;;
40314;SDS011;26021;45.640;11.302;2023-03-01T10:44:34;11.32;;;6.88;;
40314;SDS011;26021;45.640;11.302;2023-03-01T10:47:05;10.80;;;6.72;;
40314;SDS011;26021;45.640;11.302;2023-03-01T10:49:38;12.03;;;6.70;;
40314;SDS011;26021;45.640;11.302;2023-03-01T10:52:17;10.25;;;6.75;;
40314;SDS011;26021;45.640;11.302;2023-03-01T10:54:59;10.30;;;6.03;;
40314;SDS011;26021;45.640;11.302;2023-03-01T10:57:41;8.23;;;5.85;;
40314;SDS011;26021;45.640;11.302;2023-03-01T11:02:50;9.52;;;6.40;;
40314;SDS011;26021;45.640;11.302;2023-03-01T11:05:27;8.85;;;6.40;;
40314;SDS011;26021;45.640;11.302;2023-03-01T11:07:58;8.85;;;6.15;;
40314;SDS011;26021;45.640;11.302;2023-03-01T11:10:28;8.75;;;5.32;;
40314;SDS011;26021;45.640;11.302;2023-03-01T11:13:15;8.20;;;5.65;;
40314;SDS011;26021;45.640;11.302;2023-03-01T11:15:43;6.65;;;5.53;;
40314;SDS011;26021;45.640;11.302;2023-03-01T11:18:23;6.43;;;5.00;;
40314;SDS011;26021;45.640;11.302;2023-03-01T11:20:48;7.93;;;5.80;;
40314;SDS011;26021;45.640;11.302;2023-03-01T11:23:18;8.95;;;6.07;;
40314;SDS011;26021;45.640;11.302;2023-03-01T11:25:58;8.55;;;5.75;;
40314;SDS011;26021;45.640;11.302;2023-03-01T11:28:28;7.82;;;5.80;;
40314;SDS011;26021;45.640;11.302;2023-03-01T11:31:07;10.23;;;6.45;;
40314;SDS011;26021;45.640;11.302;2023-03-01T11:36:32;11.95;;;7.38;;
40314;SDS011;26021;45.640;11.302;2023-03-01T11:39:10;11.10;;;7.03;;
40314;SDS011;26021;45.640;11.302;2023-03-01T11:41:41;13.48;;;8.95;;
40314;SDS011;26021;45.640;11.302;2023-03-01T11:44:13;14.82;;;10.45;;
40314;SDS011;26021;45.640;11.302;2023-03-01T11:46:49;18.17;;;9.63;;
40314;SDS011;26021;45.640;11.302;2023-03-01T11:57:38;12.32;;;7.72;;
40314;SDS011;26021;45.640;11.302;2023-03-01T12:17:09;12.27;;;7.82;;
40314;SDS011;26021;45.640;11.302;2023-03-01T12:20:09;10.88;;;6.20;;
40314;SDS011;26021;45.640;11.302;2023-03-01T12:25:41;11.38;;;6.68;;
40314;SDS011;26021;45.640;11.302;2023-03-01T12:28:28;11.98;;;7.13;;
40314;SDS011;26021;45.640;11.302;2023-03-01T12:42:21;16.20;;;6.72;;
40314;SDS011;26021;45.640;11.302;2023-03-01T12:50:11;11.43;;;8.80;;
40314;SDS011;26021;45.640;11.302;2023-03-01T12:55:19;14.45;;;8.55;;
40314;SDS011;26021;45.640;11.302;2023-03-01T12:58:39;18.05;;;10.10;;
40314;SDS011;26021;45.640;11.302;2023-03-01T13:03:56;9.40;;;6.72;;
40314;SDS011;26021;45.640;11.302;2023-03-01T13:06:32;11.93;;;6.03;;
40314;SDS011;26021;45.640;11.302;2023-03-01T13:11:28;16.35;;;5.75;;
40314;SDS011;26021;45.640;11.302;2023-03-01T13:16:53;13.93;;;6.35;;
40314;SDS011;26021;45.640;11.302;2023-03-01T13:19:23;15.52;;;7.68;;
40314;SDS011;26021;45.640;11.302;2023-03-01T13:21:51;13.93;;;7.75;;
40314;SDS011;26021;45.640;11.302;2023-03-01T13:27:10;13.73;;;6.35;;
40314;SDS011;26021;45.640;11.302;2023-03-01T13:29:50;14.98;;;5.53;;
40314;SDS011;26021;45.640;11.302;2023-03-01T13:34:56;15.10;;;5.47;;
40314;SDS011;26021;45.640;11.302;2023-03-01T13:37:24;12.40;;;5.43;;
40314;SDS011;26021;45.640;11.302;2023-03-01T13:39:55;11.95;;;5.90;;
40314;SDS011;26021;45.640;11.302;2023-03-01T13:45:02;20.85;;;6.07;;
40314;SDS011;26021;45.640;11.302;2023-03-01T13:47:56;13.40;;;6.18;;
40314;SDS011;26021;45.640;11.302;2023-03-01T13:50:25;14.38;;;6.18;;
40314;SDS011;26021;45.640;11.302;2023-03-01T13:52:54;24.23;;;8.05;;
40314;SDS011;26021;45.640;11.302;2023-03-01T13:55:26;20.60;;;11.18;;
40314;SDS011;26021;45.640;11.302;2023-03-01T13:57:58;15.85;;;7.32;;
40314;SDS011;26021;45.640;11.302;2023-03-01T14:00:30;12.13;;;6.20;;
40314;SDS011;26021;45.640;11.302;2023-03-01T14:03:15;13.90;;;5.95;;
40314;SDS011;26021;45.640;11.302;2023-03-01T14:05:58;15.75;;;6.40;;
40314;SDS011;26021;45.640;11.302;2023-03-01T14:08:27;13.10;;;6.10;;
40314;SDS011;26021;45.640;11.302;2023-03-01T14:11:03;14.07;;;6.28;;
40314;SDS011;26021;45.640;11.302;2023-03-01T14:19:13;14.18;;;5.97;;
40314;SDS011;26021;45.640;11.302;2023-03-01T14:21:58;17.98;;;6.35;;
40314;SDS011;26021;45.640;11.302;2023-03-01T14:24:30;14.75;;;7.13;;
40314;SDS011;26021;45.640;11.302;2023-03-01T14:27:00;9.65;;;5.50;;
40314;SDS011;26021;45.640;11.302;2023-03-01T14:29:36;12.70;;;5.68;;
40314;SDS011;26021;45.640;11.302;2023-03-01T14:34:44;13.35;;;6.97;;
40314;SDS011;26021;45.640;11.302;2023-03-01T14:37:28;13.15;;;6.88;;
40314;SDS011;26021;45.640;11.302;2023-03-01T14:39:59;16.05;;;7.25;;
40314;SDS011;26021;45.640;11.302;2023-03-01T14:42:28;12.25;;;6.25;;
40314;SDS011;26021;45.640;11.302;2023-03-01T14:44:59;15.63;;;6.75;;
40314;SDS011;26021;45.640;11.302;2023-03-01T14:47:27;15.02;;;8.05;;
40314;SDS011;26021;45.640;11.302;2023-03-01T14:50:02;13.38;;;7.80;;
40314;SDS011;26021;45.640;11.302;2023-03-01T14:52:52;14.40;;;7.13;;
40314;SDS011;26021;45.640;11.302;2023-03-01T14:55:23;14.77;;;8.10;;
40314;SDS011;26021;45.640;11.302;2023-03-01T14:57:55;16.98;;;7.93;;
40314;SDS011;26021;45.640;11.302;2023-03-01T15:00:23;14.90;;;9.25;;
40314;SDS011;26021;45.640;11.302;2023-03-01T15:02:52;16.70;;;10.45;;
40314;SDS011;26021;45.640;11.302;2023-03-01T15:05:29;21.23;;;11.20;;
40314;SDS011;26021;45.640;11.302;2023-03-01T15:07:57;20.80;;;11.57;;
40314;SDS011;26021;45.640;11.302;2023-03-01T15:10:29;24.13;;;12.70;;
40314;SDS011;26021;45.640;11.302;2023-03-01T15:12:56;22.67;;;10.93;;
40314;SDS011;26021;45.640;11.302;2023-03-01T15:15:47;18.13;;;10.45;;
40314;SDS011;26021;45.640;11.302;2023-03-01T15:18:20;34.17;;;22.05;;
40314;SDS011;26021;45.640;11.302;2023-03-01T15:20:50;38.67;;;20.80;;
40314;SDS011;26021;45.640;11.302;2023-03-01T15:23:26;20.98;;;12.90;;
40314;SDS011;26021;45.640;11.302;2023-03-01T15:25:53;24.40;;;14.77;;
40314;SDS011;26021;45.640;11.302;2023-03-01T15:28:36;26.38;;;16.67;;
40314;SDS011;26021;45.640;11.302;2023-03-01T15:33:50;31.10;;;16.88;;
40314;SDS011;26021;45.640;11.302;2023-03-01T15:41:55;23.58;;;13.50;;
40314;SDS011;26021;45.640;11.302;2023-03-01T15:44:31;25.48;;;13.10;;
40314;SDS011;26021;45.640;11.302;2023-03-01T15:46:58;24.55;;;12.93;;
40314;SDS011;26021;45.640;11.302;2023-03-01T15:49:34;20.08;;;13.30;;
40314;SDS011;26021;45.640;11.302;2023-03-01T15:52:22;23.50;;;13.10;;
40314;SDS011;26021;45.640;11.302;2023-03-01T15:54:54;17.55;;;12.15;;
40314;SDS011;26021;45.640;11.302;2023-03-01T15:57:25;28.00;;;14.30;;
40314;SDS011;26021;45.640;11.302;2023-03-01T15:59:50;22.60;;;14.13;;
40314;SDS011;26021;45.640;11.302;2023-03-01T16:02:16;24.98;;;14.63;;
40314;SDS011;26021;45.640;11.302;2023-03-01T16:04:41;36.47;;;22.63;;
40314;SDS011;26021;45.640;11.302;2023-03-01T16:07:08;27.00;;;16.48;;
40314;SDS011;26021;45.640;11.302;2023-03-01T16:09:34;24.20;;;15.52;;
40314;SDS011;26021;45.640;11.302;2023-03-01T16:12:00;25.33;;;15.07;;
40314;SDS011;26021;45.640;11.302;2023-03-01T16:14:26;20.48;;;11.82;;
40314;SDS011;26021;45.640;11.302;2023-03-01T16:16:52;18.27;;;10.98;;
40314;SDS011;26021;45.640;11.302;2023-03-01T16:19:17;15.40;;;8.20;;
40314;SDS011;26021;45.640;11.302;2023-03-01T16:21:43;13.93;;;8.25;;
40314;SDS011;26021;45.640;11.302;2023-03-01T16:24:11;11.23;;;7.45;;
40314;SDS011;26021;45.640;11.302;2023-03-01T16:26:37;14.13;;;7.40;;
40314;SDS011;26021;45.640;11.302;2023-03-01T16:29:03;15.75;;;8.27;;
40314;SDS011;26021;45.640;11.302;2023-03-01T16:31:28;16.95;;;7.43;;
40314;SDS011;26021;45.640;11.302;2023-03-01T16:33:54;15.25;;;8.75;;
40314;SDS011;26021;45.640;11.302;2023-03-01T16:36:21;15.55;;;9.25;;